createdAt,value
2018-04-01T00:01:03.047Z,9.35
2018-04-01T00:03:30.075Z,9.43
2018-04-01T00:05:57.253Z,9.50
2018-04-01T00:08:24.293Z,9.35
2018-04-01T00:10:51.383Z,9.30
2018-04-01T00:13:18.436Z,9.33
2018-04-01T00:15:45.459Z,9.38
2018-04-01T00:18:12.511Z,9.50
2018-04-01T00:20:39.521Z,9.52
2018-04-01T00:23:06.578Z,9.43
2018-04-01T00:25:33.579Z,9.33
2018-04-01T00:28:00.646Z,9.26
2018-04-01T00:30:27.713Z,9.24
2018-04-01T00:32:54.776Z,9.22
2018-04-01T00:35:21.791Z,9.24
2018-04-01T00:37:48.853Z,9.26
2018-04-01T00:40:15.890Z,9.23
2018-04-01T00:42:43.049Z,9.17
2018-04-01T00:45:10.063Z,9.14
2018-04-01T00:47:37.132Z,9.11
2018-04-01T00:50:04.132Z,9.12
2018-04-01T00:52:31.150Z,9.11
2018-04-01T00:54:58.201Z,9.04
2018-04-01T00:57:25.230Z,9.09
2018-04-01T00:59:52.275Z,9.13
2018-04-01T01:02:19.326Z,9.17
2018-04-01T01:04:47.486Z,9.23
2018-04-01T01:07:14.486Z,9.18
2018-04-01T01:09:41.535Z,9.12
2018-04-01T01:12:08.571Z,8.99
2018-04-01T01:14:35.646Z,8.88
2018-04-01T01:17:02.686Z,8.90
2018-04-01T01:19:29.733Z,8.89
2018-04-01T01:21:56.774Z,8.91
2018-04-01T01:24:23.828Z,8.87
2018-04-01T01:26:50.883Z,8.77
2018-04-01T01:29:17.890Z,8.77
2018-04-01T01:31:44.947Z,8.85
2018-04-01T01:34:11.953Z,8.95
2018-04-01T01:36:39.005Z,8.97
2018-04-01T01:39:06.013Z,9.00
2018-04-01T01:41:33.058Z,8.92
2018-04-01T01:44:00.074Z,8.88
2018-04-01T01:46:27.128Z,8.77
2018-04-01T01:48:54.140Z,8.58
2018-04-01T01:51:21.203Z,8.52
2018-04-01T01:53:48.207Z,8.54
2018-04-01T01:56:15.279Z,8.44
2018-04-01T01:58:42.283Z,8.50
2018-04-01T02:01:09.360Z,8.49
2018-04-01T02:03:36.369Z,8.41
2018-04-01T02:06:03.441Z,8.37
2018-04-01T02:08:30.492Z,8.34
2018-04-01T02:10:57.511Z,8.42
2018-04-01T02:13:24.573Z,8.42
2018-04-01T02:15:51.668Z,8.42
2018-04-01T02:18:18.751Z,8.43
2018-04-01T02:20:45.758Z,8.57
2018-04-01T02:23:12.813Z,8.49
2018-04-01T02:25:39.819Z,8.46
2018-04-01T02:28:06.862Z,8.56
2018-04-01T02:30:33.919Z,8.61
2018-04-01T02:33:00.980Z,8.70
2018-04-01T02:35:27.998Z,8.62
2018-04-01T02:37:55.131Z,8.59
2018-04-01T02:40:22.157Z,8.69
2018-04-01T02:42:49.243Z,8.78
2018-04-01T02:45:16.275Z,8.90
2018-04-01T02:47:43.311Z,8.89
2018-04-01T02:50:10.348Z,8.70
2018-04-01T02:52:37.357Z,8.67
2018-04-01T02:55:04.429Z,8.70
2018-04-01T02:57:31.519Z,8.70
2018-04-01T02:59:58.579Z,8.72
2018-04-01T03:02:25.588Z,8.77
2018-04-01T03:04:52.647Z,8.67
2018-04-01T03:07:19.646Z,8.56
2018-04-01T03:09:46.695Z,8.41
2018-04-01T03:12:13.760Z,8.43
2018-04-01T03:14:40.808Z,8.32
2018-04-01T03:17:07.825Z,8.30
2018-04-01T03:19:34.890Z,8.36
2018-04-01T03:22:01.917Z,8.42
2018-04-01T03:24:29.130Z,8.47
2018-04-01T03:26:56.126Z,8.47
2018-04-01T03:29:23.173Z,8.48
2018-04-01T03:31:50.223Z,8.44
2018-04-01T03:34:17.311Z,8.51
2018-04-01T03:36:44.383Z,8.46
2018-04-01T03:39:11.399Z,8.41
2018-04-01T03:41:38.450Z,8.45
2018-04-01T03:44:05.498Z,8.58
2018-04-01T03:46:32.563Z,8.66
2018-04-01T03:48:59.581Z,8.71
2018-04-01T03:51:26.627Z,8.71
2018-04-01T03:53:53.662Z,8.59
2018-04-01T03:56:20.790Z,8.56
2018-04-01T03:58:47.794Z,8.63
2018-04-01T04:01:14.846Z,8.70
2018-04-01T04:03:41.929Z,8.78
2018-04-01T04:06:08.983Z,8.66
2018-04-01T04:08:36.042Z,8.67
2018-04-01T04:11:03.070Z,8.57
2018-04-01T04:13:30.159Z,8.47
2018-04-01T04:15:57.199Z,8.40
2018-04-01T04:18:24.254Z,8.35
2018-04-01T04:20:51.278Z,8.27
2018-04-01T04:23:18.327Z,8.21
2018-04-01T04:25:45.447Z,8.20
2018-04-01T04:28:12.499Z,8.21
2018-04-01T04:30:39.515Z,8.24
2018-04-01T04:33:06.554Z,8.28
2018-04-01T04:35:33.583Z,8.34
2018-04-01T04:38:00.636Z,8.33
2018-04-01T04:40:27.639Z,8.34
2018-04-01T04:42:54.735Z,8.33
2018-04-01T04:45:21.795Z,8.35
2018-04-01T04:47:48.807Z,8.37
2018-04-01T04:50:15.855Z,8.39
2018-04-01T04:52:42.866Z,8.40
2018-04-01T04:55:09.914Z,8.42
2018-04-01T04:57:36.918Z,8.44
2018-04-01T05:00:04.027Z,8.45
2018-04-01T05:02:31.079Z,8.55
2018-04-01T05:04:58.119Z,8.56
2018-04-01T05:07:25.175Z,8.60
2018-04-01T05:09:52.219Z,8.64
2018-04-01T05:12:19.272Z,8.62
2018-04-01T05:14:46.265Z,8.64
2018-04-01T05:17:13.314Z,8.66
2018-04-01T05:19:40.317Z,8.63
2018-04-01T05:22:07.361Z,8.58
2018-04-01T05:24:34.384Z,8.58
2018-04-01T05:27:01.443Z,8.61
2018-04-01T05:29:28.473Z,8.63
2018-04-01T05:31:55.516Z,8.55
2018-04-01T05:34:22.522Z,8.52
2018-04-01T05:36:49.650Z,8.49
2018-04-01T05:39:16.682Z,8.43
2018-04-01T05:41:43.772Z,8.40
2018-04-01T05:44:10.847Z,8.37
2018-04-01T05:46:37.853Z,8.33
2018-04-01T05:49:04.858Z,8.34
2018-04-01T05:51:32.142Z,8.22
2018-04-01T05:53:59.113Z,8.13
2018-04-01T05:56:26.143Z,7.96
2018-04-01T05:58:53.241Z,8.00
2018-04-01T06:01:20.250Z,8.02
2018-04-01T06:03:47.454Z,8.13
2018-04-01T06:06:14.557Z,8.13
2018-04-01T06:08:41.610Z,8.19
2018-04-01T06:11:08.631Z,8.20
2018-04-01T06:13:35.693Z,8.19
2018-04-01T06:16:02.703Z,8.17
2018-04-01T06:18:29.805Z,8.22
2018-04-01T06:20:56.819Z,8.22
2018-04-01T06:23:23.876Z,8.22
2018-04-01T06:25:50.895Z,8.19
2018-04-01T06:28:17.916Z,8.13
2018-04-01T06:30:44.993Z,8.07
2018-04-01T06:33:12.026Z,7.97
2018-04-01T06:35:39.073Z,7.88
2018-04-01T06:38:06.164Z,7.76
2018-04-01T06:40:33.254Z,7.69
2018-04-01T06:43:00.262Z,7.58
2018-04-01T06:45:27.331Z,7.53
2018-04-01T06:47:54.361Z,7.52
2018-04-01T06:50:21.433Z,7.50
2018-04-01T06:52:48.532Z,7.40
2018-04-01T06:55:15.599Z,7.32
2018-04-01T06:57:42.609Z,7.29
2018-04-01T07:00:09.823Z,7.36
2018-04-01T07:02:36.871Z,7.31
2018-04-01T07:05:03.941Z,7.26
2018-04-01T07:07:30.961Z,7.28
2018-04-01T07:09:58.134Z,7.27
2018-04-01T07:12:25.160Z,7.26
2018-04-01T07:14:52.183Z,7.24
2018-04-01T07:17:19.234Z,7.26
2018-04-01T07:19:46.281Z,7.28
2018-04-01T07:22:13.325Z,7.27
2018-04-01T07:24:40.347Z,7.19
2018-04-01T07:27:07.417Z,7.14
2018-04-01T07:29:34.451Z,7.20
2018-04-01T07:32:01.512Z,7.17
2018-04-01T07:34:28.534Z,7.14
2018-04-01T07:36:55.594Z,7.15
2018-04-01T07:39:22.687Z,7.14
2018-04-01T07:41:49.717Z,7.09
2018-04-01T07:44:16.738Z,7.16
2018-04-01T07:46:43.811Z,7.18
2018-04-01T07:49:10.828Z,7.09
2018-04-01T07:51:37.896Z,7.09
2018-04-01T07:54:04.919Z,7.15
2018-04-01T07:56:32.166Z,7.16
2018-04-01T07:58:59.199Z,7.19
2018-04-01T08:01:26.653Z,7.24
2018-04-01T08:03:53.686Z,7.26
2018-04-01T08:06:20.691Z,7.26
2018-04-01T08:08:47.777Z,7.29
2018-04-01T08:11:14.814Z,7.33
2018-04-01T08:13:41.870Z,7.34
2018-04-01T08:16:08.888Z,7.33
2018-04-01T08:18:35.954Z,7.37
2018-04-01T08:21:02.965Z,7.45
2018-04-01T08:23:30.118Z,7.49
2018-04-01T08:25:57.139Z,7.53
2018-04-01T08:28:24.186Z,7.54
2018-04-01T08:30:51.202Z,7.60
2018-04-01T08:33:18.302Z,7.57
2018-04-01T08:35:45.338Z,7.61
2018-04-01T08:38:12.511Z,7.57
2018-04-01T08:40:39.521Z,7.58
2018-04-01T08:43:06.587Z,7.53
2018-04-01T08:45:33.599Z,7.60
2018-04-01T08:48:00.682Z,7.59
2018-04-01T08:50:27.755Z,7.64
2018-04-01T08:52:54.762Z,7.62
2018-04-01T08:55:21.939Z,7.60
2018-04-01T08:57:48.964Z,7.62
2018-04-01T09:00:16.026Z,7.64
2018-04-01T09:02:43.150Z,7.55
2018-04-01T09:05:10.221Z,7.53
2018-04-01T09:07:37.271Z,7.53
2018-04-01T09:10:04.380Z,7.54
2018-04-01T09:12:31.411Z,7.51
2018-04-01T09:14:58.490Z,7.56
2018-04-01T09:17:25.541Z,7.50
2018-04-01T09:19:52.599Z,7.52
2018-04-01T09:22:19.640Z,7.58
2018-04-01T09:24:46.693Z,7.51
2018-04-01T09:27:13.817Z,7.54
2018-04-01T09:29:40.890Z,7.52
2018-04-01T09:32:08.114Z,7.45
2018-04-01T09:34:35.169Z,7.52
2018-04-01T09:37:02.400Z,7.49
2018-04-01T09:39:29.411Z,7.50
2018-04-01T09:41:56.468Z,7.40
2018-04-01T09:44:23.494Z,7.38
2018-04-01T09:46:50.561Z,7.40
2018-04-01T09:49:17.626Z,7.42
2018-04-01T09:51:44.686Z,7.48
2018-04-01T09:54:11.719Z,7.55
2018-04-01T09:56:38.794Z,7.52
2018-04-01T09:59:06.002Z,7.56
2018-04-01T10:01:33.744Z,7.63
2018-04-01T10:04:01.435Z,7.70
2018-04-01T10:06:29.061Z,7.77
2018-04-01T10:08:56.714Z,7.77
2018-04-01T10:11:24.314Z,7.76
2018-04-01T10:13:51.958Z,7.76
2018-04-01T10:16:19.547Z,7.70
2018-04-01T10:18:47.200Z,7.64
2018-04-01T10:21:14.825Z,7.65
2018-04-01T10:23:42.466Z,7.63
2018-04-01T10:26:10.095Z,7.67
2018-04-01T10:28:37.741Z,7.73
2018-04-01T10:31:05.341Z,7.81
2018-04-01T10:33:33.014Z,7.81
2018-04-01T10:36:00.636Z,7.81
2018-04-01T10:38:28.297Z,7.82
2018-04-01T10:40:55.939Z,7.80
2018-04-01T10:43:23.592Z,7.82
2018-04-01T10:45:51.232Z,7.78
2018-04-01T10:48:18.828Z,7.75
2018-04-01T10:50:46.458Z,7.73
2018-04-01T10:53:14.047Z,7.74
2018-04-01T10:55:41.111Z,7.78
2018-04-01T10:58:08.296Z,7.84
2018-04-01T11:00:35.398Z,7.84
2018-04-01T11:03:02.410Z,7.87
2018-04-01T11:05:29.469Z,7.92
2018-04-01T11:07:56.495Z,7.95
2018-04-01T11:10:23.605Z,7.92
2018-04-01T11:12:50.631Z,7.95
2018-04-01T11:15:17.659Z,7.95
2018-04-01T11:17:44.720Z,7.98
2018-04-01T11:20:11.779Z,7.99
2018-04-01T11:22:38.856Z,7.99
2018-04-01T11:25:05.873Z,7.98
2018-04-01T11:27:32.921Z,7.97
2018-04-01T11:29:59.954Z,8.00
2018-04-01T11:32:27.018Z,7.99
2018-04-01T11:34:54.022Z,8.04
2018-04-01T11:37:21.135Z,8.01
2018-04-01T11:39:48.157Z,8.01
2018-04-01T11:42:15.235Z,8.02
2018-04-01T11:44:42.250Z,8.00
2018-04-01T11:47:09.339Z,8.00
2018-04-01T11:49:36.361Z,7.97
2018-04-01T11:52:04.342Z,8.00
2018-04-01T11:54:31.410Z,7.95
2018-04-01T11:56:58.426Z,7.94
2018-04-01T11:59:25.488Z,7.92
2018-04-01T12:01:52.505Z,7.96
2018-04-01T12:04:19.646Z,7.94
2018-04-01T12:06:46.719Z,8.00
2018-04-01T12:09:13.851Z,8.02
2018-04-01T12:11:40.879Z,7.99
2018-04-01T12:14:08.077Z,7.96
2018-04-01T12:16:35.100Z,7.96
2018-04-01T12:19:02.154Z,8.04
2018-04-01T12:21:29.235Z,8.06
2018-04-01T12:23:56.263Z,8.12
2018-04-01T12:26:23.366Z,8.24
2018-04-01T12:28:50.395Z,8.34
2018-04-01T12:31:17.456Z,8.42
2018-04-01T12:33:44.470Z,8.61
2018-04-01T12:36:11.518Z,8.79
2018-04-01T12:38:38.553Z,8.88
2018-04-01T12:41:05.601Z,8.98
2018-04-01T12:43:32.926Z,8.94
2018-04-01T12:45:59.979Z,8.99
2018-04-01T12:48:27.022Z,9.03
2018-04-01T12:50:54.129Z,8.97
2018-04-01T12:53:21.158Z,8.92
2018-04-01T12:55:48.219Z,8.89
2018-04-01T12:58:15.311Z,8.87
2018-04-01T13:00:42.379Z,8.90
2018-04-01T13:03:09.491Z,8.91
2018-04-01T13:05:36.581Z,9.00
2018-04-01T13:08:03.874Z,9.23
2018-04-01T13:10:31.864Z,9.69
2018-04-01T13:12:59.018Z,9.98
2018-04-01T13:15:26.094Z,10.06
2018-04-01T13:17:53.192Z,10.22
2018-04-01T13:20:20.380Z,10.38
2018-04-01T13:22:47.619Z,10.49
2018-04-01T13:25:14.745Z,10.36
2018-04-01T13:27:41.859Z,10.31
2018-04-01T13:30:09.028Z,10.19
2018-04-01T13:32:36.128Z,10.07
2018-04-01T13:35:03.219Z,9.93
2018-04-01T13:37:30.253Z,9.94
2018-04-01T13:39:57.319Z,10.03
2018-04-01T13:42:24.418Z,10.08
2018-04-01T13:44:51.497Z,10.14
2018-04-01T13:47:18.542Z,10.41
2018-04-01T13:49:45.628Z,10.88
2018-04-01T13:52:12.683Z,11.15
2018-04-01T13:54:39.795Z,11.58
2018-04-01T13:57:06.839Z,12.01
2018-04-01T13:59:33.883Z,11.89
2018-04-01T14:02:00.926Z,12.28
2018-04-01T14:04:28.224Z,12.07
2018-04-01T14:06:55.267Z,11.84
2018-04-01T14:09:22.343Z,11.70
2018-04-01T14:11:49.395Z,11.77
2018-04-01T14:14:16.425Z,11.60
2018-04-01T14:16:43.681Z,11.43
2018-04-01T14:19:10.716Z,11.04
2018-04-01T14:21:37.787Z,10.79
2018-04-01T14:24:04.839Z,10.54
2018-04-01T14:26:31.912Z,10.33
2018-04-01T14:28:58.946Z,10.10
2018-04-01T14:31:26.020Z,10.01
2018-04-01T14:33:53.041Z,9.92
2018-04-01T14:36:20.106Z,9.90
2018-04-01T14:38:47.122Z,9.84
2018-04-01T14:41:14.198Z,9.78
2018-04-01T14:43:41.309Z,9.65
2018-04-01T14:46:08.332Z,9.60
2018-04-01T14:48:35.394Z,9.52
2018-04-01T14:51:02.407Z,9.48
2018-04-01T14:53:29.462Z,9.43
2018-04-01T14:55:56.572Z,9.36
2018-04-01T14:58:23.633Z,9.34
2018-04-01T15:00:50.650Z,9.33
2018-04-01T15:03:17.757Z,9.32
2018-04-01T15:05:44.778Z,9.29
2018-04-01T15:08:11.839Z,9.22
2018-04-01T15:10:38.870Z,9.06
2018-04-01T15:13:06.082Z,9.07
2018-04-01T15:15:33.180Z,9.04
2018-04-01T15:18:00.216Z,8.96
2018-04-01T15:20:27.277Z,8.91
2018-04-01T15:22:54.293Z,8.95
2018-04-01T15:25:21.347Z,8.91
2018-04-01T15:27:48.373Z,8.86
2018-04-01T15:30:15.414Z,8.72
2018-04-01T15:32:42.447Z,8.62
2018-04-01T15:35:09.499Z,8.60
2018-04-01T15:37:36.527Z,8.56
2018-04-01T15:40:03.602Z,8.58
2018-04-01T15:42:30.636Z,8.54
2018-04-01T15:44:57.696Z,8.47
2018-04-01T15:47:26.142Z,8.40
2018-04-01T15:49:53.193Z,8.42
2018-04-01T15:52:20.260Z,8.46
2018-04-01T15:54:47.303Z,8.45
2018-04-01T15:57:14.325Z,8.47
2018-04-01T15:59:41.369Z,8.53
2018-04-01T16:02:08.424Z,8.58
2018-04-01T16:04:35.600Z,8.58
2018-04-01T16:07:02.708Z,8.56
2018-04-01T16:09:29.787Z,8.59
2018-04-01T16:11:56.861Z,8.61
2018-04-01T16:14:23.921Z,8.58
2018-04-01T16:16:51.005Z,8.58
2018-04-01T16:19:18.057Z,8.52
2018-04-01T16:21:45.120Z,8.53
2018-04-01T16:24:12.171Z,8.51
2018-04-01T16:26:39.297Z,8.47
2018-04-01T16:29:06.391Z,8.49
2018-04-01T16:31:33.463Z,8.47
2018-04-01T16:34:00.552Z,8.48
2018-04-01T16:36:27.635Z,8.46
2018-04-01T16:38:54.662Z,8.48
2018-04-01T16:41:21.864Z,8.43
2018-04-01T16:43:48.889Z,8.36
2018-04-01T16:46:15.996Z,8.34
2018-04-01T16:48:43.003Z,8.30
2018-04-01T16:51:10.045Z,8.21
2018-04-01T16:53:37.094Z,8.09
2018-04-01T16:56:04.433Z,8.05
2018-04-01T16:58:31.498Z,7.99
2018-04-01T17:00:58.541Z,7.93
2018-04-01T17:03:25.626Z,7.77
2018-04-01T17:05:52.670Z,7.61
2018-04-01T17:08:19.846Z,7.62
2018-04-01T17:10:46.877Z,7.53
2018-04-01T17:13:14.063Z,7.57
2018-04-01T17:15:41.078Z,7.57
2018-04-01T17:18:08.172Z,7.48
2018-04-01T17:20:35.205Z,7.43
2018-04-01T17:23:02.287Z,7.39
2018-04-01T17:25:29.322Z,7.43
2018-04-01T17:27:56.375Z,7.39
2018-04-01T17:30:23.426Z,7.29
2018-04-01T17:32:50.500Z,7.25
2018-04-01T17:35:17.658Z,7.19
2018-04-01T17:37:44.908Z,7.23
2018-04-01T17:40:11.940Z,7.22
2018-04-01T17:42:38.994Z,7.20
2018-04-01T17:45:06.149Z,7.23
2018-04-01T17:47:33.197Z,7.27
2018-04-01T17:50:00.335Z,7.24
2018-04-01T17:52:27.381Z,7.27
2018-04-01T17:54:54.458Z,7.35
2018-04-01T17:57:21.486Z,7.45
2018-04-01T17:59:48.564Z,7.49
2018-04-01T18:02:15.681Z,7.54
2018-04-01T18:04:42.864Z,7.57
2018-04-01T18:07:09.898Z,7.52
2018-04-01T18:09:36.961Z,7.59
2018-04-01T18:12:04.002Z,7.67
2018-04-01T18:14:31.074Z,7.67
2018-04-01T18:16:58.108Z,7.67
2018-04-01T18:19:25.206Z,7.70
2018-04-01T18:21:52.240Z,7.69
2018-04-01T18:24:19.328Z,7.68
2018-04-01T18:26:46.506Z,7.69
2018-04-01T18:29:13.571Z,7.75
2018-04-01T18:31:40.618Z,7.77
2018-04-01T18:34:07.643Z,7.77
2018-04-01T18:36:34.703Z,7.74
2018-04-01T18:39:01.733Z,7.79
2018-04-01T18:41:28.797Z,7.78
2018-04-01T18:43:55.866Z,7.75
2018-04-01T18:46:22.939Z,7.77
2018-04-01T18:48:49.984Z,7.74
2018-04-01T18:51:17.125Z,7.76
2018-04-01T18:53:44.152Z,7.72
2018-04-01T18:56:11.214Z,7.74
2018-04-01T18:58:38.257Z,7.77
2018-04-01T19:01:05.444Z,7.80
2018-04-01T19:03:32.438Z,7.79
2018-04-01T19:05:59.577Z,7.81
2018-04-01T19:08:26.607Z,7.82
2018-04-01T19:10:53.653Z,7.86
2018-04-01T19:13:20.783Z,7.88
2018-04-01T19:15:47.820Z,7.87
2018-04-01T19:18:15.553Z,7.86
2018-04-01T19:20:43.205Z,7.90
2018-04-01T19:23:10.853Z,7.95
2018-04-01T19:25:38.527Z,7.96
2018-04-01T19:28:06.158Z,7.99
2018-04-01T19:30:33.788Z,8.00
2018-04-01T19:33:01.421Z,7.97
2018-04-01T19:35:29.020Z,7.89
2018-04-01T19:37:56.661Z,7.88
2018-04-01T19:40:24.302Z,7.85
2018-04-01T19:42:51.919Z,7.83
2018-04-01T19:45:19.556Z,7.85
2018-04-01T19:47:47.161Z,7.86
2018-04-01T19:50:14.800Z,7.87
2018-04-01T19:52:42.435Z,7.91
2018-04-01T19:55:10.102Z,7.87
2018-04-01T19:57:37.712Z,7.82
2018-04-01T20:00:05.358Z,7.83
2018-04-01T20:02:32.979Z,7.84
2018-04-01T20:05:00.651Z,7.88
2018-04-01T20:07:28.289Z,7.89
2018-04-01T20:09:55.949Z,7.88
2018-04-01T20:12:24.425Z,7.80
2018-04-01T20:14:52.177Z,7.79
2018-04-01T20:17:19.785Z,7.77
2018-04-01T20:19:47.431Z,7.79
2018-04-01T20:22:15.055Z,7.75
2018-04-01T20:24:42.716Z,7.76
2018-04-01T20:27:10.312Z,7.77
2018-04-01T20:29:38.282Z,7.74
2018-04-01T20:32:05.890Z,7.75
2018-04-01T20:34:33.506Z,7.77
2018-04-01T20:37:01.249Z,7.76
2018-04-01T20:39:29.158Z,7.74
2018-04-01T20:41:56.798Z,7.77
2018-04-01T20:44:24.491Z,7.74
2018-04-01T20:46:52.139Z,7.70
2018-04-01T20:49:19.752Z,7.68
2018-04-01T20:51:47.424Z,7.70
2018-04-01T20:54:15.013Z,7.72
2018-04-01T20:56:42.667Z,7.74
2018-04-01T20:59:10.275Z,7.75
2018-04-01T21:01:37.924Z,7.75
2018-04-01T21:04:05.535Z,7.78
2018-04-01T21:06:33.224Z,7.80
2018-04-01T21:09:00.853Z,7.81
2018-04-01T21:11:28.622Z,7.73
2018-04-01T21:13:56.278Z,7.71
2018-04-01T21:16:23.934Z,7.74
2018-04-01T21:18:51.658Z,7.75
2018-04-01T21:21:19.317Z,7.77
2018-04-01T21:23:46.949Z,7.77
2018-04-01T21:26:14.546Z,7.76
2018-04-01T21:28:42.244Z,7.77
2018-04-01T21:31:09.855Z,7.75
2018-04-01T21:33:37.474Z,7.71
2018-04-01T21:36:05.075Z,7.70
2018-04-01T21:38:32.710Z,7.72
2018-04-01T21:41:00.707Z,7.73
2018-04-01T21:43:28.369Z,7.74
2018-04-01T21:45:56.018Z,7.80
2018-04-01T21:48:23.700Z,7.83
2018-04-01T21:50:51.311Z,7.83
2018-04-01T21:53:19.008Z,7.87
2018-04-01T21:55:46.608Z,7.89
2018-04-01T21:58:14.289Z,7.88
2018-04-01T22:00:41.898Z,7.84
2018-04-01T22:03:09.575Z,7.85
2018-04-01T22:05:37.235Z,7.90
2018-04-01T22:08:04.891Z,7.88
2018-04-01T22:10:32.599Z,7.86
2018-04-01T22:13:00.276Z,7.86
2018-04-01T22:15:27.924Z,7.87
2018-04-01T22:17:55.521Z,7.87
2018-04-01T22:20:23.283Z,7.88
2018-04-01T22:23:02.842Z,7.83
2018-04-01T22:25:30.486Z,7.76
2018-04-01T22:27:58.174Z,7.75
2018-04-01T22:30:25.896Z,7.75
2018-04-01T22:32:53.471Z,7.78
2018-04-01T22:35:21.159Z,7.79
2018-04-01T22:37:48.787Z,7.76
2018-04-01T22:40:16.538Z,7.73
2018-04-01T22:42:44.123Z,7.71
2018-04-01T22:45:11.835Z,7.64
2018-04-01T22:47:39.544Z,7.63
2018-04-01T22:50:07.204Z,7.67
2018-04-01T22:52:34.802Z,7.70
2018-04-01T22:55:02.438Z,7.72
2018-04-01T22:57:30.049Z,7.75
2018-04-01T22:59:57.656Z,7.73
2018-04-01T23:02:25.296Z,7.69
2018-04-01T23:04:52.891Z,7.70
2018-04-01T23:07:20.523Z,7.70
2018-04-01T23:09:48.131Z,7.72
2018-04-01T23:12:15.900Z,7.73
2018-04-01T23:14:43.547Z,7.72
2018-04-01T23:17:11.224Z,7.73
2018-04-01T23:19:38.840Z,7.70
2018-04-01T23:22:06.476Z,7.68
2018-04-01T23:24:34.096Z,7.67
2018-04-01T23:27:01.721Z,7.61
2018-04-01T23:29:29.309Z,7.58
2018-04-01T23:31:56.956Z,7.56
2018-04-01T23:34:24.561Z,7.61
2018-04-01T23:36:52.187Z,7.60
2018-04-01T23:39:19.785Z,7.62
2018-04-01T23:41:47.424Z,7.63
2018-04-01T23:44:15.104Z,7.62
2018-04-01T23:46:42.750Z,7.64
2018-04-01T23:49:10.339Z,7.66
2018-04-01T23:51:37.987Z,7.70
2018-04-01T23:54:06.193Z,7.70
2018-04-01T23:56:33.211Z,7.69
2018-04-01T23:59:00.844Z,7.70
